createdAt,value
2019-05-16T00:00:04.011Z,101581.70
2019-05-16T00:02:38.767Z,101579.14
2019-05-16T00:05:13.220Z,101575.11
2019-05-16T00:07:49.394Z,101582.55
2019-05-16T00:10:22.625Z,101581.70
2019-05-16T00:13:24.202Z,101579.73
2019-05-16T00:15:59.211Z,101579.35
2019-05-16T00:18:41.192Z,101574.46
2019-05-16T00:21:13.432Z,101569.08
2019-05-16T00:23:44.416Z,101566.27
2019-05-16T00:26:14.953Z,101570.37
2019-05-16T00:28:45.654Z,101565.36
2019-05-16T00:31:15.580Z,101560.82
2019-05-16T00:33:49.406Z,101564.36
2019-05-16T00:36:20.572Z,101556.78
2019-05-16T00:38:51.073Z,101555.28
2019-05-16T00:41:22.801Z,101561.02
2019-05-16T00:43:57.698Z,101554.79
2019-05-16T00:46:28.582Z,101559.06
2019-05-16T00:48:58.885Z,101555.02
2019-05-16T00:51:29.692Z,101556.38
2019-05-16T00:53:59.259Z,101552.18
2019-05-16T00:56:30.533Z,101549.98
2019-05-16T00:59:02.184Z,101555.37
2019-05-16T01:01:31.950Z,101550.89
2019-05-16T01:04:01.548Z,101544.42
2019-05-16T01:06:31.611Z,101539.33
2019-05-16T01:09:01.232Z,101535.20
2019-05-16T01:11:30.787Z,101533.61
2019-05-16T01:14:00.491Z,101538.65
2019-05-16T01:16:30.245Z,101524.48
2019-05-16T01:19:00.012Z,101520.55
2019-05-16T01:21:29.862Z,101521.81
2019-05-16T01:24:00.306Z,101517.42
2019-05-16T01:26:30.238Z,101523.95
2019-05-16T01:28:59.800Z,101520.92
2019-05-16T01:31:29.455Z,101517.53
2019-05-16T01:33:58.987Z,101520.97
2019-05-16T01:36:36.864Z,101527.50
2019-05-16T01:38:59.691Z,101522.72
2019-05-16T01:41:29.283Z,101534.28
2019-05-16T01:43:58.897Z,101529.01
2019-05-16T01:46:28.647Z,101536.09
2019-05-16T01:48:58.186Z,101536.98
2019-05-16T01:51:28.819Z,101535.64
2019-05-16T01:53:58.468Z,101535.78
2019-05-16T01:56:28.185Z,101538.27
2019-05-16T01:58:58.261Z,101539.88
2019-05-16T02:01:28.844Z,101537.44
2019-05-16T02:03:58.761Z,101533.19
2019-05-16T02:06:28.822Z,101532.59
2019-05-16T02:08:58.505Z,101532.14
2019-05-16T02:11:28.527Z,101539.23
2019-05-16T02:13:58.586Z,101536.08
2019-05-16T02:16:28.380Z,101529.39
2019-05-16T02:18:58.868Z,101524.55
2019-05-16T02:21:28.777Z,101526.39
2019-05-16T02:23:59.584Z,101521.41
2019-05-16T02:26:29.699Z,101521.44
2019-05-16T02:29:00.889Z,101519.03
2019-05-16T02:31:31.488Z,101517.58
2019-05-16T02:34:04.661Z,101517.97
2019-05-16T02:36:32.444Z,101509.94
2019-05-16T02:39:02.306Z,101512.73
2019-05-16T02:41:32.167Z,101504.09
2019-05-16T02:44:01.928Z,101496.14
2019-05-16T02:46:31.511Z,101494.30
2019-05-16T02:49:01.311Z,101490.41
2019-05-16T02:51:31.509Z,101489.41
2019-05-16T02:54:01.626Z,101478.80
2019-05-16T02:56:31.916Z,101475.48
2019-05-16T02:59:01.946Z,101469.14
2019-05-16T03:01:32.277Z,101474.88
2019-05-16T03:04:02.050Z,101465.47
2019-05-16T03:06:32.633Z,101463.27
2019-05-16T03:09:05.343Z,101457.76
2019-05-16T03:11:36.908Z,101452.23
2019-05-16T03:14:07.165Z,101455.52
2019-05-16T03:16:41.749Z,101455.27
2019-05-16T03:19:14.283Z,101450.75
2019-05-16T03:21:45.665Z,101448.91
2019-05-16T03:24:15.546Z,101444.13
2019-05-16T03:26:45.599Z,101439.45
2019-05-16T03:29:15.407Z,101433.09
2019-05-16T03:31:45.725Z,101430.50
2019-05-16T03:34:17.122Z,101429.04
2019-05-16T03:36:47.513Z,101425.22
2019-05-16T03:39:17.308Z,101424.02
2019-05-16T03:41:47.239Z,101418.98
2019-05-16T03:44:20.801Z,101418.75
2019-05-16T03:46:51.889Z,101418.68
2019-05-16T03:49:21.206Z,101415.61
2019-05-16T03:51:51.666Z,101415.61
2019-05-16T03:54:21.441Z,101417.09
2019-05-16T03:56:51.490Z,101408.77
2019-05-16T03:59:21.686Z,101408.77
2019-05-16T04:01:51.641Z,101407.05
2019-05-16T04:04:22.008Z,101409.73
2019-05-16T04:06:51.780Z,101402.55
2019-05-16T04:09:21.589Z,101405.34
2019-05-16T04:11:51.346Z,101408.77
2019-05-16T04:14:21.599Z,101403.50
2019-05-16T04:16:51.945Z,101404.73
2019-05-16T04:19:21.611Z,101394.69
2019-05-16T04:21:51.386Z,101396.88
2019-05-16T04:24:21.862Z,101388.45
2019-05-16T04:26:52.043Z,101389.80
2019-05-16T04:29:21.903Z,101391.39
2019-05-16T04:31:51.715Z,101385.27
2019-05-16T04:34:21.677Z,101376.85
2019-05-16T04:36:51.874Z,101384.78
2019-05-16T04:39:23.802Z,101379.05
2019-05-16T04:41:54.371Z,101379.89
2019-05-16T04:44:25.437Z,101376.30
2019-05-16T04:46:55.347Z,101379.73
2019-05-16T04:49:27.721Z,101383.22
2019-05-16T04:52:11.658Z,101386.97
2019-05-16T04:54:47.144Z,101378.28
2019-05-16T04:57:20.618Z,101380.57
2019-05-16T04:59:56.767Z,101393.48
2019-05-16T05:02:30.647Z,101395.77
2019-05-16T05:05:01.313Z,101398.05
2019-05-16T05:07:32.127Z,101401.06
2019-05-16T05:10:03.915Z,101403.84
2019-05-16T05:12:35.295Z,101405.38
2019-05-16T05:15:10.406Z,101404.67
2019-05-16T05:17:42.694Z,101410.98
2019-05-16T05:20:13.846Z,101398.26
2019-05-16T05:22:44.208Z,101404.70
2019-05-16T05:25:14.288Z,101397.47
2019-05-16T05:27:45.267Z,101395.27
2019-05-16T05:30:15.710Z,101396.12
2019-05-16T05:32:47.005Z,101394.92
2019-05-16T05:35:20.524Z,101398.95
2019-05-16T05:37:53.097Z,101399.80
2019-05-16T05:40:25.121Z,101402.50
2019-05-16T05:42:55.988Z,101399.31
2019-05-16T05:45:47.389Z,101404.58
2019-05-16T05:48:21.587Z,101395.66
2019-05-16T05:50:53.793Z,101397.70
2019-05-16T05:53:23.853Z,101395.70
2019-05-16T05:55:53.689Z,101391.66
2019-05-16T05:58:24.912Z,101390.90
2019-05-16T06:01:10.870Z,101396.87
2019-05-16T06:07:54.738Z,101409.00
2019-05-16T06:11:10.288Z,101410.98
2019-05-16T06:13:43.608Z,101414.98
2019-05-16T06:16:13.519Z,101416.69
2019-05-16T06:18:45.558Z,101415.97
2019-05-16T06:21:20.310Z,101418.31
2019-05-16T06:23:50.889Z,101418.16
2019-05-16T06:26:21.175Z,101416.64
2019-05-16T06:28:53.482Z,101416.79
2019-05-16T06:31:24.521Z,101419.25
2019-05-16T06:33:55.020Z,101417.66
2019-05-16T06:36:24.563Z,101417.45
2019-05-16T06:38:54.275Z,101422.84
2019-05-16T06:41:23.735Z,101412.68
2019-05-16T06:43:53.275Z,101415.26
2019-05-16T06:46:23.050Z,101413.41
2019-05-16T06:48:52.721Z,101410.55
2019-05-16T06:51:23.660Z,101404.38
2019-05-16T06:53:53.296Z,101404.09
2019-05-16T06:56:23.320Z,101396.26
2019-05-16T06:58:52.793Z,101400.05
2019-05-16T07:01:22.385Z,101400.69
2019-05-16T07:03:51.947Z,101403.19
2019-05-16T07:06:46.027Z,101405.00
2019-05-16T07:08:52.627Z,101403.86
2019-05-16T07:11:22.040Z,101395.39
2019-05-16T07:13:52.084Z,101401.50
2019-05-16T07:16:21.590Z,101389.17
2019-05-16T07:18:51.154Z,101382.53
2019-05-16T07:21:20.625Z,101385.31
2019-05-16T07:23:51.210Z,101384.57
2019-05-16T07:26:20.804Z,101386.21
2019-05-16T07:28:51.626Z,101387.00
2019-05-16T07:31:22.571Z,101389.25
2019-05-16T07:33:52.305Z,101383.41
2019-05-16T07:36:21.806Z,101383.31
2019-05-16T07:38:51.340Z,101386.59
2019-05-16T07:41:20.724Z,101385.64
2019-05-16T07:43:50.664Z,101388.41
2019-05-16T07:46:20.897Z,101388.63
2019-05-16T07:48:51.792Z,101391.76
2019-05-16T07:51:21.754Z,101392.83
2019-05-16T07:53:51.116Z,101387.09
2019-05-16T07:56:20.767Z,101386.97
2019-05-16T07:58:50.871Z,101389.03
2019-05-16T08:01:20.763Z,101382.97
2019-05-16T08:03:50.916Z,101385.53
2019-05-16T08:06:20.985Z,101383.02
2019-05-16T08:08:51.253Z,101380.49
2019-05-16T08:11:23.699Z,101386.45
2019-05-16T08:13:52.259Z,101375.59
2019-05-16T08:16:21.889Z,101374.79
2019-05-16T08:18:51.280Z,101374.13
2019-05-16T08:21:20.741Z,101366.48
2019-05-16T08:26:21.990Z,101357.03
2019-05-16T08:28:51.478Z,101353.11
2019-05-16T08:33:54.942Z,101356.70
2019-05-16T08:36:23.559Z,101358.03
2019-05-16T08:38:52.986Z,101359.39
2019-05-16T08:41:22.468Z,101352.94
2019-05-16T08:43:53.399Z,101352.59
2019-05-16T08:46:23.365Z,101349.19
2019-05-16T08:48:54.150Z,101346.31
2019-05-16T08:51:24.165Z,101343.56
2019-05-16T08:53:53.648Z,101335.93
2019-05-16T08:56:23.108Z,101340.66
2019-05-16T09:01:23.807Z,101334.86
2019-05-16T09:03:53.407Z,101331.77
2019-05-16T09:06:23.277Z,101327.36
2019-05-16T09:08:52.879Z,101323.11
2019-05-16T09:10:25.130Z,101337.59
2019-05-16T09:11:35.586Z,101316.62
2019-05-16T09:13:53.471Z,101321.72
2019-05-16T09:16:22.896Z,101323.36
2019-05-16T09:18:38.454Z,101357.38
2019-05-16T09:18:52.421Z,101324.14
2019-05-16T09:21:23.916Z,101325.50
2019-05-16T09:23:53.375Z,101322.13
2019-05-16T09:26:24.004Z,101315.31
2019-05-16T09:28:53.426Z,101318.66
2019-05-16T09:31:22.942Z,101317.42
2019-05-16T09:33:52.464Z,101307.53
2019-05-16T09:36:21.908Z,101303.05
2019-05-16T09:38:51.573Z,101302.59
2019-05-16T09:41:21.081Z,101295.27
2019-05-16T09:43:50.761Z,101288.05
2019-05-16T09:46:20.231Z,101287.66
2019-05-16T09:48:49.737Z,101287.28
2019-05-16T09:51:21.327Z,101280.55
2019-05-16T09:53:50.328Z,101279.45
2019-05-16T09:56:19.719Z,101273.30
2019-05-16T09:58:49.137Z,101275.69
2019-05-16T10:01:18.675Z,101270.05
2019-05-16T10:03:48.143Z,101270.92
2019-05-16T10:06:19.242Z,101271.86
2019-05-16T10:08:48.778Z,101264.59
2019-05-16T10:11:18.416Z,101259.63
2019-05-16T10:13:47.827Z,101261.51
2019-05-16T10:16:17.259Z,101256.14
2019-05-16T10:18:47.601Z,101252.15
2019-05-16T10:21:20.473Z,101255.62
2019-05-16T10:23:48.327Z,101247.74
2019-05-16T10:26:19.516Z,101251.50
2019-05-16T10:28:49.079Z,101248.45
2019-05-16T10:31:18.557Z,101247.58
2019-05-16T10:33:48.024Z,101245.17
2019-05-16T10:36:21.422Z,101250.50
2019-05-16T10:38:48.734Z,101254.09
2019-05-16T10:41:18.202Z,101252.30
2019-05-16T10:43:47.717Z,101248.48
2019-05-16T10:46:17.862Z,101248.07
2019-05-16T10:48:47.491Z,101244.56
2019-05-16T10:51:19.490Z,101235.94
2019-05-16T10:54:13.146Z,101237.57
2019-05-16T10:56:20.344Z,101235.95
2019-05-16T10:59:14.763Z,101236.10
2019-05-16T11:01:27.347Z,101237.06
2019-05-16T11:03:52.423Z,101227.52
2019-05-16T11:06:25.599Z,101239.52
2019-05-16T11:08:57.133Z,101230.77
2019-05-16T11:11:27.348Z,101229.50
2019-05-16T11:13:57.149Z,101229.77
2019-05-16T11:16:27.483Z,101228.34
2019-05-16T11:19:13.765Z,101227.73
2019-05-16T11:21:28.400Z,101224.89
2019-05-16T11:23:57.907Z,101229.76
2019-05-16T11:26:30.098Z,101218.47
2019-05-16T11:28:58.683Z,101224.09
2019-05-16T11:31:28.176Z,101219.58
2019-05-16T11:33:57.771Z,101220.02
2019-05-16T11:36:27.497Z,101218.55
2019-05-16T11:39:01.424Z,101221.32
2019-05-16T11:41:28.404Z,101218.22
2019-05-16T11:43:57.888Z,101218.47
2019-05-16T11:46:28.283Z,101213.94
2019-05-16T11:48:57.719Z,101223.80
2019-05-16T11:51:27.367Z,101223.22
2019-05-16T11:54:00.066Z,101221.27
2019-05-16T11:56:30.737Z,101222.19
2019-05-16T11:59:00.490Z,101215.61
2019-05-16T12:01:30.005Z,101213.39
2019-05-16T12:03:59.586Z,101208.25
2019-05-16T12:06:29.268Z,101207.44
2019-05-16T12:08:58.908Z,101207.79
2019-05-16T12:11:28.447Z,101201.46
2019-05-16T12:13:58.077Z,101201.84
2019-05-16T12:16:27.749Z,101192.30
2019-05-16T12:18:57.292Z,101195.43
2019-05-16T12:21:27.434Z,101188.52
2019-05-16T12:23:57.296Z,101180.11
2019-05-16T12:26:28.153Z,101177.45
2019-05-16T12:28:58.088Z,101177.78
2019-05-16T12:31:27.490Z,101171.55
2019-05-16T12:33:59.732Z,101178.61
2019-05-16T12:36:31.323Z,101178.83
2019-05-16T12:38:59.494Z,101177.16
2019-05-16T12:41:28.978Z,101169.73
2019-05-16T12:44:00.258Z,101169.01
2019-05-16T12:46:29.935Z,101163.44
2019-05-16T12:48:59.523Z,101159.55
2019-05-16T12:51:29.028Z,101148.38
2019-05-16T12:53:58.684Z,101162.48
2019-05-16T12:56:28.114Z,101163.48
2019-05-16T12:58:57.659Z,101169.78
2019-05-16T13:01:33.998Z,101166.30
2019-05-16T13:03:58.403Z,101155.87
2019-05-16T13:06:27.895Z,101154.83
2019-05-16T13:08:57.519Z,101154.59
2019-05-16T13:11:27.163Z,101150.38
2019-05-16T13:14:05.537Z,101153.66
2019-05-16T13:16:28.193Z,101149.85
2019-05-16T13:18:58.082Z,101147.31
2019-05-16T13:21:27.760Z,101146.11
2019-05-16T13:23:57.672Z,101142.31
2019-05-16T13:26:29.773Z,101135.95
2019-05-16T13:28:59.327Z,101138.31
2019-05-16T13:31:28.982Z,101133.17
2019-05-16T13:33:58.860Z,101129.78
2019-05-16T13:36:28.415Z,101137.07
2019-05-16T13:38:58.224Z,101131.33
2019-05-16T13:41:30.248Z,101128.34
2019-05-16T13:44:12.874Z,101132.41
2019-05-16T13:46:52.486Z,101126.94
2019-05-16T13:49:22.417Z,101127.97
2019-05-16T13:51:52.797Z,101130.02
2019-05-16T13:54:22.747Z,101115.63
2019-05-16T13:59:53.588Z,101113.11
2019-05-16T14:02:26.709Z,101111.22
2019-05-16T14:04:56.988Z,101104.33
2019-05-16T14:07:39.987Z,101110.36
2019-05-16T14:10:12.010Z,101107.61
2019-05-16T14:12:41.591Z,101096.06
2019-05-16T14:15:12.653Z,101095.95
2019-05-16T14:17:42.115Z,101092.47
2019-05-16T14:20:17.651Z,101095.80
2019-05-16T14:22:57.342Z,101092.44
2019-05-16T14:25:27.265Z,101092.80
2019-05-16T14:27:56.977Z,101091.02
2019-05-16T14:30:28.528Z,101094.52
2019-05-16T14:33:01.146Z,101084.75
2019-05-16T14:35:29.795Z,101084.81
2019-05-16T14:38:00.844Z,101085.02
2019-05-16T14:40:34.033Z,101084.73
2019-05-16T14:43:03.830Z,101078.99
2019-05-16T14:45:33.543Z,101073.56
2019-05-16T14:48:03.182Z,101069.51
2019-05-16T14:50:32.952Z,101069.51
2019-05-16T14:53:02.581Z,101065.42
2019-05-16T14:55:32.280Z,101068.38
2019-05-16T14:58:01.997Z,101068.14
2019-05-16T15:00:31.584Z,101062.91
2019-05-16T15:03:01.100Z,101069.21
2019-05-16T15:05:30.682Z,101067.72
2019-05-16T15:08:00.707Z,101066.20
2019-05-16T15:10:30.174Z,101072.24
2019-05-16T15:13:35.057Z,101075.64
2019-05-16T15:16:04.682Z,101069.59
2019-05-16T15:18:34.697Z,101055.83
2019-05-16T15:21:07.973Z,101063.14
2019-05-16T15:23:35.901Z,101058.19
2019-05-16T15:26:09.034Z,101056.45
2019-05-16T15:28:37.751Z,101052.87
2019-05-16T15:31:07.468Z,101048.59
2019-05-16T15:33:37.885Z,101050.11
2019-05-16T15:36:08.569Z,101039.28
2019-05-16T15:38:38.569Z,101049.86
2019-05-16T15:41:08.688Z,101048.52
2019-05-16T15:43:38.484Z,101038.59
2019-05-16T15:46:08.721Z,101039.02
2019-05-16T15:48:38.282Z,101033.16
2019-05-16T15:51:09.023Z,101033.16
2019-05-16T15:53:44.764Z,101033.93
2019-05-16T15:56:37.419Z,101029.95
2019-05-16T15:59:09.758Z,101029.95
2019-05-16T16:01:38.096Z,101022.03
2019-05-16T16:04:07.509Z,101031.59
2019-05-16T16:06:37.997Z,101028.98
2019-05-16T16:09:10.107Z,101033.35
2019-05-16T16:11:39.759Z,101032.16
2019-05-16T16:14:09.355Z,101031.22
2019-05-16T16:16:38.896Z,101031.22
2019-05-16T16:19:08.385Z,101032.83
2019-05-16T16:21:38.207Z,101032.83
2019-05-16T16:24:09.155Z,101026.53
2019-05-16T16:26:41.015Z,101027.70
2019-05-16T16:29:10.446Z,101021.77
2019-05-16T16:31:39.909Z,101021.09
2019-05-16T16:34:09.300Z,101022.36
2019-05-16T16:36:38.756Z,101012.58
2019-05-16T16:39:08.768Z,101017.70
2019-05-16T16:41:38.220Z,101010.63
2019-05-16T16:44:07.860Z,101010.33
2019-05-16T16:46:37.664Z,101018.23
2019-05-16T16:49:07.621Z,101012.88
2019-05-16T16:51:37.672Z,101010.67
2019-05-16T16:54:07.639Z,101007.48
2019-05-16T16:56:37.396Z,101005.03
2019-05-16T16:59:06.896Z,100997.88
2019-05-16T17:01:37.386Z,100999.67
2019-05-16T17:04:07.209Z,100992.89
2019-05-16T17:06:37.618Z,100989.69
2019-05-16T17:09:07.873Z,100989.51
2019-05-16T17:11:37.416Z,100987.70
2019-05-16T17:14:07.058Z,100986.70
2019-05-16T17:16:37.746Z,100983.77
2019-05-16T17:19:07.850Z,100990.50
2019-05-16T17:21:37.352Z,100987.20
2019-05-16T17:24:06.845Z,100983.02
2019-05-16T17:26:37.867Z,100987.23
2019-05-16T17:29:07.919Z,100984.16
2019-05-16T17:31:37.563Z,100984.16
2019-05-16T17:34:08.418Z,100978.08
2019-05-16T17:36:38.034Z,100977.69
2019-05-16T17:39:07.696Z,100978.45
2019-05-16T17:41:37.145Z,100977.54
2019-05-16T17:44:06.952Z,100972.70
2019-05-16T17:46:40.633Z,100981.31
2019-05-16T17:49:08.086Z,100976.70
2019-05-16T17:51:37.629Z,100974.92
2019-05-16T17:54:07.172Z,100974.89
2019-05-16T17:56:37.061Z,100976.80
2019-05-16T17:59:07.321Z,100974.46
2019-05-16T18:01:37.239Z,100976.05
2019-05-16T18:04:06.732Z,100966.89
2019-05-16T18:06:37.087Z,100964.71
2019-05-16T18:09:08.405Z,100966.48
2019-05-16T18:11:39.688Z,100964.71
2019-05-16T18:14:17.162Z,100959.45
2019-05-16T18:16:53.706Z,100960.40
2019-05-16T18:19:20.802Z,100969.72
2019-05-16T18:21:50.375Z,100959.73
2019-05-16T18:24:19.883Z,100958.98
2019-05-16T18:26:50.513Z,100954.50
2019-05-16T18:29:20.119Z,100960.90
2019-05-16T18:31:49.546Z,100963.03
2019-05-16T18:34:19.092Z,100962.83
2019-05-16T18:36:48.573Z,100957.57
2019-05-16T18:39:17.991Z,100953.34
2019-05-16T18:41:47.626Z,100959.44
2019-05-16T18:44:17.339Z,100955.23
2019-05-16T18:46:47.748Z,100956.17
2019-05-16T18:49:17.135Z,100959.63
2019-05-16T18:51:46.694Z,100959.19
2019-05-16T18:54:17.259Z,100956.64
2019-05-16T18:56:47.475Z,100955.55
2019-05-16T18:59:17.037Z,100951.45
2019-05-16T19:01:47.033Z,100947.55
2019-05-16T19:04:17.591Z,100953.34
2019-05-16T19:06:47.353Z,100953.00
2019-05-16T19:09:16.867Z,100946.92
2019-05-16T19:11:46.230Z,100942.52
2019-05-16T19:14:16.919Z,100944.50
2019-05-16T19:16:49.018Z,100951.01
2019-05-16T19:19:18.555Z,100952.33
2019-05-16T19:21:48.318Z,100946.95
2019-05-16T19:24:17.729Z,100945.73
2019-05-16T19:26:47.266Z,100952.64
2019-05-16T19:29:17.400Z,100951.56
2019-05-16T19:31:49.914Z,100953.08
2019-05-16T19:34:18.045Z,100950.30
2019-05-16T19:36:47.951Z,100952.45
2019-05-16T19:39:17.652Z,100949.16
2019-05-16T19:41:48.209Z,100946.44
2019-05-16T19:44:17.583Z,100943.19
2019-05-16T19:46:47.085Z,100954.43
2019-05-16T19:49:16.431Z,100946.88
2019-05-16T19:51:48.946Z,100946.30
2019-05-16T19:54:17.340Z,100950.58
2019-05-16T19:56:47.038Z,100943.64
2019-05-16T19:59:16.894Z,100943.62
2019-05-16T20:01:46.589Z,100946.46
2019-05-16T20:04:18.311Z,100947.01
2019-05-16T20:06:47.582Z,100948.13
2019-05-16T20:09:17.253Z,100945.13
2019-05-16T20:11:47.614Z,100949.58
2019-05-16T20:14:19.658Z,100953.33
2019-05-16T20:16:48.250Z,100956.23
2019-05-16T20:19:17.788Z,100950.66
2019-05-16T20:21:47.674Z,100957.09
2019-05-16T20:24:17.172Z,100949.13
2019-05-16T20:26:46.637Z,100951.66
2019-05-16T20:29:17.116Z,100953.28
2019-05-16T20:31:47.465Z,100951.72
2019-05-16T20:34:17.765Z,100955.55
2019-05-16T20:36:47.549Z,100951.78
2019-05-16T20:39:17.382Z,100951.38
2019-05-16T20:41:47.484Z,100954.33
2019-05-16T20:44:17.566Z,100948.41
2019-05-16T20:46:49.692Z,100951.19
2019-05-16T20:49:18.172Z,100949.23
2019-05-16T20:51:50.005Z,100957.23
2019-05-16T20:54:18.807Z,100961.62
2019-05-16T20:56:49.428Z,100950.62
2019-05-16T20:59:19.168Z,100946.03
2019-05-16T21:01:49.237Z,100949.88
2019-05-16T21:04:19.202Z,100951.86
2019-05-16T21:07:00.207Z,100950.09
2019-05-16T21:09:20.009Z,100946.81
2019-05-16T21:11:50.124Z,100943.39
2019-05-16T21:14:19.675Z,100945.50
2019-05-16T21:16:49.644Z,100948.53
2019-05-16T21:19:19.447Z,100942.80
2019-05-16T21:21:48.957Z,100949.83
2019-05-16T21:24:18.512Z,100950.84
2019-05-16T21:26:47.924Z,100949.28
2019-05-16T21:29:19.630Z,100941.13
2019-05-16T21:31:48.542Z,100935.39
2019-05-16T21:34:19.219Z,100939.89
2019-05-16T21:36:48.741Z,100939.16
2019-05-16T21:39:18.292Z,100936.30
2019-05-16T21:41:47.885Z,100927.70
2019-05-16T21:44:17.371Z,100931.15
2019-05-16T21:46:47.080Z,100925.72
2019-05-16T21:49:19.662Z,100920.61
2019-05-16T21:51:48.132Z,100922.75
2019-05-16T21:54:17.633Z,100922.52
2019-05-16T21:56:47.027Z,100919.77
2019-05-16T21:59:16.439Z,100922.13
2019-05-16T22:01:47.307Z,100917.88
2019-05-16T22:04:17.146Z,100914.13
2019-05-16T22:06:47.486Z,100920.95
2019-05-16T22:09:17.101Z,100912.64
2019-05-16T22:11:46.672Z,100908.84
2019-05-16T22:14:17.587Z,100911.51
2019-05-16T22:16:47.032Z,100904.56
2019-05-16T22:19:16.792Z,100905.41
2019-05-16T22:21:46.240Z,100912.74
2019-05-16T22:24:17.190Z,100909.37
2019-05-16T22:26:46.998Z,100902.64
2019-05-16T22:29:17.673Z,100904.61
2019-05-16T22:31:47.287Z,100899.39
2019-05-16T22:34:17.100Z,100893.73
2019-05-16T22:36:49.241Z,100899.00
2019-05-16T22:39:18.116Z,100891.40
2019-05-16T22:41:47.874Z,100893.47
2019-05-16T22:44:17.880Z,100890.87
2019-05-16T22:46:47.405Z,100892.38
2019-05-16T22:49:17.216Z,100884.08
2019-05-16T22:51:46.685Z,100877.80
2019-05-16T22:54:17.178Z,100881.98
2019-05-16T22:56:46.905Z,100880.30
2019-05-16T22:59:16.697Z,100880.98
2019-05-16T23:01:46.310Z,100878.02
2019-05-16T23:04:16.787Z,100880.20
2019-05-16T23:06:46.304Z,100879.30
2019-05-16T23:09:16.407Z,100880.73
2019-05-16T23:11:45.942Z,100877.63
2019-05-16T23:14:17.101Z,100877.06
2019-05-16T23:16:46.862Z,100877.84
2019-05-16T23:19:17.130Z,100874.62
2019-05-16T23:21:47.500Z,100874.97
2019-05-16T23:24:17.486Z,100872.47
2019-05-16T23:26:47.107Z,100873.19
2019-05-16T23:29:17.141Z,100865.31
2019-05-16T23:31:47.287Z,100864.47
2019-05-16T23:34:18.748Z,100858.75
2019-05-16T23:36:48.439Z,100856.22
2019-05-16T23:39:17.895Z,100851.46
2019-05-16T23:41:47.558Z,100848.93
2019-05-16T23:44:17.057Z,100839.67
2019-05-16T23:46:47.082Z,100847.93
2019-05-16T23:49:17.199Z,100835.48
2019-05-16T23:51:47.337Z,100835.34
2019-05-16T23:54:17.408Z,100825.30
2019-05-16T23:56:47.056Z,100825.99
2019-05-16T23:59:17.156Z,100827.05
